sensor_id;sensor_type;location;lat;lon;timestamp;P1;durP1;ratioP1;P2;durP2;ratioP2
70455;SDS011;57916;51.996;5.180;2023-05-10T00:00:21;50.67;;;21.40;;
70455;SDS011;57916;51.996;5.180;2023-05-10T00:02:50;49.53;;;19.83;;
70455;SDS011;57916;51.996;5.180;2023-05-10T00:05:17;50.67;;;20.87;;
70455;SDS011;57916;51.996;5.180;2023-05-10T00:07:44;54.80;;;21.23;;
70455;SDS011;57916;51.996;5.180;2023-05-10T00:10:11;58.20;;;21.38;;
70455;SDS011;57916;51.996;5.180;2023-05-10T00:12:39;60.42;;;21.60;;
70455;SDS011;57916;51.996;5.180;2023-05-10T00:15:06;61.73;;;21.77;;
70455;SDS011;57916;51.996;5.180;2023-05-10T00:17:33;70.18;;;23.30;;
70455;SDS011;57916;51.996;5.180;2023-05-10T00:20:01;68.47;;;23.48;;
70455;SDS011;57916;51.996;5.180;2023-05-10T00:22:28;70.93;;;24.58;;
70455;SDS011;57916;51.996;5.180;2023-05-10T00:24:55;68.40;;;23.60;;
70455;SDS011;57916;51.996;5.180;2023-05-10T00:27:22;69.53;;;23.45;;
70455;SDS011;57916;51.996;5.180;2023-05-10T00:29:49;75.67;;;25.30;;
70455;SDS011;57916;51.996;5.180;2023-05-10T00:32:16;83.55;;;26.27;;
70455;SDS011;57916;51.996;5.180;2023-05-10T00:34:43;79.15;;;26.30;;
70455;SDS011;57916;51.996;5.180;2023-05-10T00:37:10;80.35;;;25.95;;
70455;SDS011;57916;51.996;5.180;2023-05-10T00:39:37;90.65;;;27.23;;
70455;SDS011;57916;51.996;5.180;2023-05-10T00:42:04;80.07;;;26.80;;
70455;SDS011;57916;51.996;5.180;2023-05-10T00:44:32;78.38;;;25.90;;
70455;SDS011;57916;51.996;5.180;2023-05-10T00:46:59;76.47;;;24.90;;
70455;SDS011;57916;51.996;5.180;2023-05-10T00:49:26;67.85;;;24.08;;
70455;SDS011;57916;51.996;5.180;2023-05-10T00:51:53;73.18;;;24.73;;
70455;SDS011;57916;51.996;5.180;2023-05-10T00:54:20;65.75;;;23.33;;
70455;SDS011;57916;51.996;5.180;2023-05-10T00:56:47;74.60;;;24.98;;
70455;SDS011;57916;51.996;5.180;2023-05-10T00:59:16;81.85;;;25.65;;
70455;SDS011;57916;51.996;5.180;2023-05-10T01:01:47;91.90;;;27.40;;
70455;SDS011;57916;51.996;5.180;2023-05-10T01:04:14;94.32;;;29.40;;
70455;SDS011;57916;51.996;5.180;2023-05-10T01:06:42;99.17;;;28.87;;
70455;SDS011;57916;51.996;5.180;2023-05-10T01:09:09;96.28;;;28.27;;
70455;SDS011;57916;51.996;5.180;2023-05-10T01:11:38;93.22;;;29.33;;
70455;SDS011;57916;51.996;5.180;2023-05-10T01:14:06;104.20;;;30.45;;
70455;SDS011;57916;51.996;5.180;2023-05-10T01:16:36;101.57;;;31.00;;
70455;SDS011;57916;51.996;5.180;2023-05-10T01:19:05;106.65;;;31.67;;
70455;SDS011;57916;51.996;5.180;2023-05-10T01:21:45;99.05;;;29.67;;
70455;SDS011;57916;51.996;5.180;2023-05-10T01:35:37;89.45;;;28.98;;
70455;SDS011;57916;51.996;5.180;2023-05-10T01:38:20;91.30;;;30.33;;
70455;SDS011;57916;51.996;5.180;2023-05-10T01:43:57;95.70;;;33.50;;
70455;SDS011;57916;51.996;5.180;2023-05-10T01:46:36;107.05;;;34.47;;
70455;SDS011;57916;51.996;5.180;2023-05-10T01:49:08;107.00;;;36.13;;
70455;SDS011;57916;51.996;5.180;2023-05-10T01:51:48;113.78;;;37.22;;
70455;SDS011;57916;51.996;5.180;2023-05-10T01:54:19;119.00;;;38.78;;
70455;SDS011;57916;51.996;5.180;2023-05-10T01:56:48;119.47;;;38.95;;
70455;SDS011;57916;51.996;5.180;2023-05-10T01:59:21;118.68;;;38.85;;
70455;SDS011;57916;51.996;5.180;2023-05-10T02:01:52;118.35;;;38.72;;
70455;SDS011;57916;51.996;5.180;2023-05-10T02:04:20;117.67;;;37.97;;
70455;SDS011;57916;51.996;5.180;2023-05-10T02:06:49;119.63;;;36.77;;
70455;SDS011;57916;51.996;5.180;2023-05-10T02:09:19;117.45;;;35.75;;
70455;SDS011;57916;51.996;5.180;2023-05-10T02:11:49;122.07;;;38.15;;
70455;SDS011;57916;51.996;5.180;2023-05-10T02:14:17;103.60;;;35.10;;
70455;SDS011;57916;51.996;5.180;2023-05-10T02:16:46;114.32;;;35.35;;
70455;SDS011;57916;51.996;5.180;2023-05-10T02:19:14;111.88;;;36.10;;
70455;SDS011;57916;51.996;5.180;2023-05-10T02:21:43;115.35;;;37.72;;
70455;SDS011;57916;51.996;5.180;2023-05-10T02:24:11;117.22;;;36.67;;
70455;SDS011;57916;51.996;5.180;2023-05-10T02:26:40;110.00;;;35.60;;
70455;SDS011;57916;51.996;5.180;2023-05-10T02:29:09;115.05;;;36.90;;
70455;SDS011;57916;51.996;5.180;2023-05-10T02:31:38;113.72;;;37.42;;
70455;SDS011;57916;51.996;5.180;2023-05-10T02:34:06;123.13;;;38.10;;
70455;SDS011;57916;51.996;5.180;2023-05-10T02:36:34;115.03;;;37.00;;
70455;SDS011;57916;51.996;5.180;2023-05-10T02:39:03;105.53;;;35.78;;
70455;SDS011;57916;51.996;5.180;2023-05-10T02:41:35;108.22;;;35.05;;
70455;SDS011;57916;51.996;5.180;2023-05-10T02:44:04;107.55;;;34.90;;
70455;SDS011;57916;51.996;5.180;2023-05-10T02:46:34;102.20;;;33.42;;
70455;SDS011;57916;51.996;5.180;2023-05-10T02:49:02;96.60;;;33.45;;
70455;SDS011;57916;51.996;5.180;2023-05-10T02:51:30;95.93;;;32.47;;
70455;SDS011;57916;51.996;5.180;2023-05-10T02:57:00;94.70;;;31.65;;
70455;SDS011;57916;51.996;5.180;2023-05-10T02:59:31;81.97;;;30.00;;
70455;SDS011;57916;51.996;5.180;2023-05-10T03:01:59;84.23;;;29.97;;
70455;SDS011;57916;51.996;5.180;2023-05-10T03:04:27;82.07;;;29.50;;
70455;SDS011;57916;51.996;5.180;2023-05-10T03:06:55;83.82;;;29.48;;
70455;SDS011;57916;51.996;5.180;2023-05-10T03:09:22;80.95;;;29.05;;
70455;SDS011;57916;51.996;5.180;2023-05-10T03:17:02;91.07;;;29.30;;
70455;SDS011;57916;51.996;5.180;2023-05-10T03:19:55;91.15;;;29.10;;
70455;SDS011;57916;51.996;5.180;2023-05-10T03:22:32;90.53;;;28.90;;
70455;SDS011;57916;51.996;5.180;2023-05-10T03:25:04;90.93;;;29.23;;
70455;SDS011;57916;51.996;5.180;2023-05-10T03:27:35;104.10;;;29.27;;
70455;SDS011;57916;51.996;5.180;2023-05-10T03:30:05;96.47;;;28.85;;
70455;SDS011;57916;51.996;5.180;2023-05-10T03:32:34;111.60;;;30.27;;
70455;SDS011;57916;51.996;5.180;2023-05-10T03:35:08;97.82;;;29.75;;
70455;SDS011;57916;51.996;5.180;2023-05-10T03:37:36;114.93;;;31.25;;
70455;SDS011;57916;51.996;5.180;2023-05-10T03:40:04;100.75;;;30.42;;
70455;SDS011;57916;51.996;5.180;2023-05-10T03:42:34;110.75;;;31.15;;
70455;SDS011;57916;51.996;5.180;2023-05-10T03:45:02;113.78;;;32.70;;
70455;SDS011;57916;51.996;5.180;2023-05-10T03:47:29;117.13;;;33.58;;
70455;SDS011;57916;51.996;5.180;2023-05-10T03:49:57;119.15;;;35.83;;
70455;SDS011;57916;51.996;5.180;2023-05-10T03:52:24;110.68;;;33.65;;
70455;SDS011;57916;51.996;5.180;2023-05-10T03:54:51;110.38;;;34.35;;
70455;SDS011;57916;51.996;5.180;2023-05-10T03:57:18;108.95;;;33.45;;
70455;SDS011;57916;51.996;5.180;2023-05-10T03:59:45;109.25;;;33.28;;
70455;SDS011;57916;51.996;5.180;2023-05-10T04:02:12;112.97;;;33.60;;
70455;SDS011;57916;51.996;5.180;2023-05-10T04:04:39;109.83;;;33.87;;
70455;SDS011;57916;51.996;5.180;2023-05-10T04:07:06;105.72;;;33.60;;
70455;SDS011;57916;51.996;5.180;2023-05-10T04:09:33;110.25;;;33.80;;
70455;SDS011;57916;51.996;5.180;2023-05-10T04:12:00;114.43;;;34.00;;
70455;SDS011;57916;51.996;5.180;2023-05-10T04:14:28;106.97;;;33.70;;
70455;SDS011;57916;51.996;5.180;2023-05-10T04:16:55;112.75;;;33.05;;
70455;SDS011;57916;51.996;5.180;2023-05-10T04:19:22;118.50;;;34.77;;
70455;SDS011;57916;51.996;5.180;2023-05-10T04:21:49;117.05;;;32.97;;
70455;SDS011;57916;51.996;5.180;2023-05-10T04:24:16;110.47;;;34.33;;
70455;SDS011;57916;51.996;5.180;2023-05-10T04:26:43;125.57;;;35.42;;
70455;SDS011;57916;51.996;5.180;2023-05-10T04:29:10;124.38;;;35.17;;
70455;SDS011;57916;51.996;5.180;2023-05-10T04:31:37;117.90;;;35.17;;
70455;SDS011;57916;51.996;5.180;2023-05-10T04:34:04;119.68;;;34.03;;
70455;SDS011;57916;51.996;5.180;2023-05-10T04:36:32;118.85;;;35.05;;
70455;SDS011;57916;51.996;5.180;2023-05-10T04:39:00;121.93;;;35.90;;
70455;SDS011;57916;51.996;5.180;2023-05-10T04:41:27;132.30;;;36.63;;
70455;SDS011;57916;51.996;5.180;2023-05-10T04:43:53;125.35;;;35.97;;
70455;SDS011;57916;51.996;5.180;2023-05-10T04:46:21;125.57;;;36.03;;
70455;SDS011;57916;51.996;5.180;2023-05-10T04:48:48;130.98;;;36.60;;
70455;SDS011;57916;51.996;5.180;2023-05-10T04:51:14;128.48;;;36.15;;
70455;SDS011;57916;51.996;5.180;2023-05-10T04:53:41;120.55;;;34.80;;
70455;SDS011;57916;51.996;5.180;2023-05-10T04:56:22;122.90;;;35.45;;
70455;SDS011;57916;51.996;5.180;2023-05-10T04:58:49;124.90;;;35.13;;
70455;SDS011;57916;51.996;5.180;2023-05-10T05:01:16;126.47;;;35.88;;
70455;SDS011;57916;51.996;5.180;2023-05-10T05:03:43;134.30;;;36.30;;
70455;SDS011;57916;51.996;5.180;2023-05-10T05:06:10;143.03;;;38.83;;
70455;SDS011;57916;51.996;5.180;2023-05-10T05:08:37;136.63;;;38.55;;
70455;SDS011;57916;51.996;5.180;2023-05-10T05:11:04;140.88;;;40.15;;
70455;SDS011;57916;51.996;5.180;2023-05-10T05:13:31;145.77;;;41.25;;
70455;SDS011;57916;51.996;5.180;2023-05-10T05:16:00;138.98;;;40.75;;
70455;SDS011;57916;51.996;5.180;2023-05-10T05:18:28;133.90;;;40.77;;
70455;SDS011;57916;51.996;5.180;2023-05-10T05:20:55;137.63;;;41.88;;
70455;SDS011;57916;51.996;5.180;2023-05-10T05:23:22;133.18;;;43.22;;
70455;SDS011;57916;51.996;5.180;2023-05-10T05:25:51;132.20;;;42.45;;
70455;SDS011;57916;51.996;5.180;2023-05-10T05:28:19;122.53;;;41.15;;
70455;SDS011;57916;51.996;5.180;2023-05-10T05:30:46;127.70;;;42.17;;
70455;SDS011;57916;51.996;5.180;2023-05-10T05:33:13;122.22;;;41.38;;
70455;SDS011;57916;51.996;5.180;2023-05-10T05:35:41;118.72;;;42.10;;
70455;SDS011;57916;51.996;5.180;2023-05-10T05:38:13;129.25;;;42.70;;
70455;SDS011;57916;51.996;5.180;2023-05-10T05:40:40;137.30;;;43.35;;
70455;SDS011;57916;51.996;5.180;2023-05-10T05:43:07;145.65;;;43.10;;
70455;SDS011;57916;51.996;5.180;2023-05-10T05:45:34;146.10;;;42.80;;
70455;SDS011;57916;51.996;5.180;2023-05-10T05:48:01;137.77;;;42.17;;
70455;SDS011;57916;51.996;5.180;2023-05-10T05:50:28;135.18;;;42.08;;
70455;SDS011;57916;51.996;5.180;2023-05-10T05:52:55;146.40;;;41.50;;
70455;SDS011;57916;51.996;5.180;2023-05-10T05:55:23;129.15;;;41.70;;
70455;SDS011;57916;51.996;5.180;2023-05-10T05:57:52;126.28;;;41.85;;
70455;SDS011;57916;51.996;5.180;2023-05-10T06:00:20;117.45;;;41.33;;
70455;SDS011;57916;51.996;5.180;2023-05-10T06:02:47;114.13;;;39.05;;
70455;SDS011;57916;51.996;5.180;2023-05-10T06:05:14;122.45;;;40.30;;
70455;SDS011;57916;51.996;5.180;2023-05-10T06:07:41;135.63;;;41.47;;
70455;SDS011;57916;51.996;5.180;2023-05-10T06:10:09;115.73;;;39.30;;
70455;SDS011;57916;51.996;5.180;2023-05-10T06:12:36;117.85;;;39.00;;
70455;SDS011;57916;51.996;5.180;2023-05-10T06:15:03;123.90;;;39.88;;
70455;SDS011;57916;51.996;5.180;2023-05-10T06:17:30;124.22;;;38.70;;
70455;SDS011;57916;51.996;5.180;2023-05-10T06:19:57;121.00;;;38.47;;
70455;SDS011;57916;51.996;5.180;2023-05-10T06:22:24;119.95;;;37.75;;
70455;SDS011;57916;51.996;5.180;2023-05-10T06:24:51;114.63;;;35.75;;
70455;SDS011;57916;51.996;5.180;2023-05-10T06:27:18;105.63;;;32.60;;
70455;SDS011;57916;51.996;5.180;2023-05-10T06:29:45;99.82;;;31.75;;
70455;SDS011;57916;51.996;5.180;2023-05-10T06:32:12;96.45;;;32.05;;
70455;SDS011;57916;51.996;5.180;2023-05-10T06:34:39;82.00;;;28.70;;
70455;SDS011;57916;51.996;5.180;2023-05-10T06:37:06;72.28;;;25.83;;
70455;SDS011;57916;51.996;5.180;2023-05-10T06:39:32;61.70;;;24.52;;
70455;SDS011;57916;51.996;5.180;2023-05-10T06:41:59;59.00;;;23.17;;
70455;SDS011;57916;51.996;5.180;2023-05-10T06:44:31;56.38;;;22.08;;
70455;SDS011;57916;51.996;5.180;2023-05-10T06:46:58;52.67;;;21.35;;
70455;SDS011;57916;51.996;5.180;2023-05-10T06:49:25;51.15;;;20.13;;
70455;SDS011;57916;51.996;5.180;2023-05-10T06:51:52;47.50;;;20.38;;
70455;SDS011;57916;51.996;5.180;2023-05-10T06:54:19;41.47;;;18.50;;
70455;SDS011;57916;51.996;5.180;2023-05-10T06:56:46;45.00;;;19.90;;
70455;SDS011;57916;51.996;5.180;2023-05-10T06:59:13;43.67;;;18.08;;
70455;SDS011;57916;51.996;5.180;2023-05-10T07:01:41;41.90;;;17.38;;
70455;SDS011;57916;51.996;5.180;2023-05-10T07:04:08;35.08;;;15.40;;
70455;SDS011;57916;51.996;5.180;2023-05-10T07:06:35;31.92;;;14.98;;
70455;SDS011;57916;51.996;5.180;2023-05-10T07:09:02;27.42;;;13.75;;
70455;SDS011;57916;51.996;5.180;2023-05-10T07:11:29;28.40;;;13.45;;
70455;SDS011;57916;51.996;5.180;2023-05-10T07:13:56;29.33;;;13.15;;
70455;SDS011;57916;51.996;5.180;2023-05-10T07:16:23;28.85;;;13.05;;
70455;SDS011;57916;51.996;5.180;2023-05-10T07:18:50;24.40;;;12.07;;
70455;SDS011;57916;51.996;5.180;2023-05-10T07:21:19;25.52;;;12.90;;
70455;SDS011;57916;51.996;5.180;2023-05-10T07:23:46;21.70;;;11.35;;
70455;SDS011;57916;51.996;5.180;2023-05-10T07:26:13;18.00;;;10.27;;
70455;SDS011;57916;51.996;5.180;2023-05-10T07:28:41;17.38;;;9.77;;
70455;SDS011;57916;51.996;5.180;2023-05-10T07:31:08;15.55;;;9.63;;
70455;SDS011;57916;51.996;5.180;2023-05-10T07:33:35;21.33;;;9.95;;
70455;SDS011;57916;51.996;5.180;2023-05-10T07:36:02;17.23;;;9.30;;
70455;SDS011;57916;51.996;5.180;2023-05-10T07:38:29;14.50;;;8.52;;
70455;SDS011;57916;51.996;5.180;2023-05-10T07:40:56;16.25;;;8.80;;
70455;SDS011;57916;51.996;5.180;2023-05-10T07:43:23;18.73;;;9.87;;
70455;SDS011;57916;51.996;5.180;2023-05-10T07:45:50;26.65;;;10.73;;
70455;SDS011;57916;51.996;5.180;2023-05-10T07:48:20;22.05;;;10.80;;
70455;SDS011;57916;51.996;5.180;2023-05-10T07:50:47;26.13;;;10.63;;
70455;SDS011;57916;51.996;5.180;2023-05-10T07:53:14;22.10;;;10.95;;
70455;SDS011;57916;51.996;5.180;2023-05-10T07:55:41;23.13;;;10.50;;
70455;SDS011;57916;51.996;5.180;2023-05-10T07:58:08;23.23;;;10.68;;
70455;SDS011;57916;51.996;5.180;2023-05-10T08:00:34;19.80;;;10.43;;
70455;SDS011;57916;51.996;5.180;2023-05-10T08:03:01;18.85;;;10.38;;
70455;SDS011;57916;51.996;5.180;2023-05-10T08:05:29;16.40;;;9.65;;
70455;SDS011;57916;51.996;5.180;2023-05-10T08:07:55;18.08;;;9.77;;
70455;SDS011;57916;51.996;5.180;2023-05-10T08:10:24;16.08;;;8.95;;
70455;SDS011;57916;51.996;5.180;2023-05-10T08:12:51;18.73;;;9.23;;
70455;SDS011;57916;51.996;5.180;2023-05-10T08:15:18;15.40;;;8.60;;
70455;SDS011;57916;51.996;5.180;2023-05-10T08:17:45;17.40;;;9.00;;
70455;SDS011;57916;51.996;5.180;2023-05-10T08:20:12;16.50;;;9.05;;
70455;SDS011;57916;51.996;5.180;2023-05-10T08:22:40;15.13;;;8.23;;
70455;SDS011;57916;51.996;5.180;2023-05-10T08:25:07;17.83;;;8.67;;
70455;SDS011;57916;51.996;5.180;2023-05-10T08:27:34;15.77;;;8.85;;
70455;SDS011;57916;51.996;5.180;2023-05-10T08:30:01;16.70;;;8.23;;
70455;SDS011;57916;51.996;5.180;2023-05-10T08:32:28;14.70;;;8.48;;
70455;SDS011;57916;51.996;5.180;2023-05-10T08:34:55;15.32;;;8.40;;
70455;SDS011;57916;51.996;5.180;2023-05-10T08:37:23;14.93;;;8.13;;
70455;SDS011;57916;51.996;5.180;2023-05-10T08:39:50;13.02;;;7.70;;
70455;SDS011;57916;51.996;5.180;2023-05-10T08:42:19;13.18;;;7.85;;
70455;SDS011;57916;51.996;5.180;2023-05-10T08:44:48;14.27;;;8.05;;
70455;SDS011;57916;51.996;5.180;2023-05-10T08:47:16;11.87;;;7.40;;
70455;SDS011;57916;51.996;5.180;2023-05-10T08:49:45;15.23;;;7.70;;
70455;SDS011;57916;51.996;5.180;2023-05-10T08:52:17;13.48;;;7.90;;
70455;SDS011;57916;51.996;5.180;2023-05-10T08:54:44;12.70;;;7.70;;
70455;SDS011;57916;51.996;5.180;2023-05-10T08:57:11;13.68;;;7.80;;
70455;SDS011;57916;51.996;5.180;2023-05-10T08:59:38;15.00;;;8.10;;
70455;SDS011;57916;51.996;5.180;2023-05-10T09:02:06;12.27;;;7.38;;
70455;SDS011;57916;51.996;5.180;2023-05-10T09:04:36;10.95;;;7.10;;
70455;SDS011;57916;51.996;5.180;2023-05-10T09:07:03;12.30;;;6.95;;
70455;SDS011;57916;51.996;5.180;2023-05-10T09:09:30;12.70;;;7.20;;
70455;SDS011;57916;51.996;5.180;2023-05-10T09:11:58;12.98;;;6.90;;
70455;SDS011;57916;51.996;5.180;2023-05-10T09:14:25;11.88;;;6.90;;
70455;SDS011;57916;51.996;5.180;2023-05-10T09:16:53;9.02;;;6.00;;
70455;SDS011;57916;51.996;5.180;2023-05-10T09:19:21;9.03;;;5.63;;
70455;SDS011;57916;51.996;5.180;2023-05-10T09:21:48;9.38;;;5.53;;
70455;SDS011;57916;51.996;5.180;2023-05-10T09:24:15;9.38;;;5.28;;
70455;SDS011;57916;51.996;5.180;2023-05-10T09:26:46;8.47;;;5.50;;
70455;SDS011;57916;51.996;5.180;2023-05-10T09:29:17;8.57;;;5.68;;
70455;SDS011;57916;51.996;5.180;2023-05-10T09:31:48;7.72;;;5.55;;
70455;SDS011;57916;51.996;5.180;2023-05-10T09:34:31;6.60;;;4.88;;
70455;SDS011;57916;51.996;5.180;2023-05-10T09:36:59;9.43;;;5.70;;
70455;SDS011;57916;51.996;5.180;2023-05-10T09:39:31;7.85;;;5.78;;
70455;SDS011;57916;51.996;5.180;2023-05-10T09:42:03;14.90;;;6.20;;
70455;SDS011;57916;51.996;5.180;2023-05-10T09:44:32;11.13;;;5.68;;
70455;SDS011;57916;51.996;5.180;2023-05-10T09:47:00;11.17;;;5.50;;
70455;SDS011;57916;51.996;5.180;2023-05-10T09:49:28;7.90;;;5.32;;
70455;SDS011;57916;51.996;5.180;2023-05-10T09:52:05;8.30;;;4.70;;
70455;SDS011;57916;51.996;5.180;2023-05-10T09:54:34;5.20;;;4.40;;
70455;SDS011;57916;51.996;5.180;2023-05-10T09:57:01;6.18;;;4.03;;
70455;SDS011;57916;51.996;5.180;2023-05-10T09:59:29;12.45;;;4.13;;
70455;SDS011;57916;51.996;5.180;2023-05-10T10:01:57;7.55;;;4.63;;
70455;SDS011;57916;51.996;5.180;2023-05-10T10:04:52;6.07;;;4.43;;
70455;SDS011;57916;51.996;5.180;2023-05-10T10:07:32;5.25;;;4.40;;
70455;SDS011;57916;51.996;5.180;2023-05-10T10:10:27;5.57;;;4.45;;
70455;SDS011;57916;51.996;5.180;2023-05-10T10:13:01;4.95;;;4.40;;
70455;SDS011;57916;51.996;5.180;2023-05-10T10:15:48;6.85;;;4.25;;
70455;SDS011;57916;51.996;5.180;2023-05-10T10:18:20;5.55;;;4.38;;
70455;SDS011;57916;51.996;5.180;2023-05-10T10:20:53;6.18;;;4.15;;
70455;SDS011;57916;51.996;5.180;2023-05-10T10:23:21;4.97;;;3.63;;
70455;SDS011;57916;51.996;5.180;2023-05-10T10:25:49;4.22;;;3.70;;
70455;SDS011;57916;51.996;5.180;2023-05-10T10:28:26;4.88;;;3.30;;
70455;SDS011;57916;51.996;5.180;2023-05-10T10:31:13;4.90;;;3.80;;
70455;SDS011;57916;51.996;5.180;2023-05-10T10:34:17;6.25;;;4.20;;
70455;SDS011;57916;51.996;5.180;2023-05-10T10:36:52;6.20;;;4.30;;
70455;SDS011;57916;51.996;5.180;2023-05-10T10:39:20;7.03;;;4.28;;
70455;SDS011;57916;51.996;5.180;2023-05-10T10:41:51;5.28;;;4.50;;
70455;SDS011;57916;51.996;5.180;2023-05-10T10:46:59;6.05;;;4.28;;
70455;SDS011;57916;51.996;5.180;2023-05-10T10:49:32;6.78;;;4.35;;
70455;SDS011;57916;51.996;5.180;2023-05-10T10:52:14;7.47;;;4.22;;
70455;SDS011;57916;51.996;5.180;2023-05-10T10:54:56;6.10;;;4.50;;
70455;SDS011;57916;51.996;5.180;2023-05-10T10:57:26;7.00;;;4.47;;
70455;SDS011;57916;51.996;5.180;2023-05-10T11:02:47;6.28;;;4.95;;
70455;SDS011;57916;51.996;5.180;2023-05-10T11:05:25;6.00;;;5.20;;
70455;SDS011;57916;51.996;5.180;2023-05-10T11:08:47;6.90;;;5.50;;
70455;SDS011;57916;51.996;5.180;2023-05-10T11:16:10;7.00;;;5.65;;
70455;SDS011;57916;51.996;5.180;2023-05-10T11:21:34;8.80;;;5.88;;
70455;SDS011;57916;51.996;5.180;2023-05-10T11:24:16;7.25;;;5.70;;
70455;SDS011;57916;51.996;5.180;2023-05-10T11:26:51;12.13;;;6.20;;
70455;SDS011;57916;51.996;5.180;2023-05-10T11:29:20;8.27;;;5.85;;
70455;SDS011;57916;51.996;5.180;2023-05-10T11:31:47;7.53;;;5.20;;
70455;SDS011;57916;51.996;5.180;2023-05-10T11:34:28;5.22;;;4.63;;
70455;SDS011;57916;51.996;5.180;2023-05-10T11:36:57;7.15;;;4.68;;
70455;SDS011;57916;51.996;5.180;2023-05-10T11:39:31;7.88;;;4.85;;
70455;SDS011;57916;51.996;5.180;2023-05-10T11:41:59;11.77;;;6.43;;
70455;SDS011;57916;51.996;5.180;2023-05-10T11:44:30;15.57;;;8.30;;
70455;SDS011;57916;51.996;5.180;2023-05-10T11:47:01;13.20;;;8.25;;
70455;SDS011;57916;51.996;5.180;2023-05-10T11:49:28;15.47;;;8.27;;
70455;SDS011;57916;51.996;5.180;2023-05-10T11:52:08;16.85;;;7.50;;
70455;SDS011;57916;51.996;5.180;2023-05-10T11:54:35;10.35;;;6.78;;
70455;SDS011;57916;51.996;5.180;2023-05-10T11:57:02;8.25;;;6.82;;
70455;SDS011;57916;51.996;5.180;2023-05-10T11:59:30;8.95;;;7.07;;
70455;SDS011;57916;51.996;5.180;2023-05-10T12:01:57;7.30;;;6.70;;
70455;SDS011;57916;51.996;5.180;2023-05-10T12:04:24;7.70;;;5.75;;
70455;SDS011;57916;51.996;5.180;2023-05-10T12:06:52;5.53;;;5.10;;
70455;SDS011;57916;51.996;5.180;2023-05-10T12:09:19;8.07;;;5.33;;
70455;SDS011;57916;51.996;5.180;2023-05-10T12:12:01;14.15;;;4.90;;
70455;SDS011;57916;51.996;5.180;2023-05-10T12:14:28;3.90;;;3.50;;
70455;SDS011;57916;51.996;5.180;2023-05-10T12:17:00;4.57;;;2.70;;
70455;SDS011;57916;51.996;5.180;2023-05-10T12:19:26;3.33;;;3.03;;
70455;SDS011;57916;51.996;5.180;2023-05-10T12:21:53;4.45;;;3.80;;
70455;SDS011;57916;51.996;5.180;2023-05-10T12:24:21;10.50;;;4.22;;
70455;SDS011;57916;51.996;5.180;2023-05-10T12:26:48;4.75;;;4.30;;
70455;SDS011;57916;51.996;5.180;2023-05-10T12:29:32;5.38;;;4.97;;
70455;SDS011;57916;51.996;5.180;2023-05-10T12:31:59;8.32;;;6.38;;
70455;SDS011;57916;51.996;5.180;2023-05-10T12:34:26;7.78;;;7.07;;
70455;SDS011;57916;51.996;5.180;2023-05-10T12:36:57;10.15;;;7.30;;
70455;SDS011;57916;51.996;5.180;2023-05-10T12:39:25;9.37;;;6.73;;
70455;SDS011;57916;51.996;5.180;2023-05-10T12:41:52;11.20;;;7.72;;
70455;SDS011;57916;51.996;5.180;2023-05-10T12:44:19;9.80;;;7.30;;
70455;SDS011;57916;51.996;5.180;2023-05-10T12:46:46;8.73;;;6.97;;
70455;SDS011;57916;51.996;5.180;2023-05-10T12:49:13;10.82;;;7.30;;
70455;SDS011;57916;51.996;5.180;2023-05-10T12:51:41;12.75;;;7.60;;
70455;SDS011;57916;51.996;5.180;2023-05-10T12:54:08;9.90;;;6.73;;
70455;SDS011;57916;51.996;5.180;2023-05-10T12:56:34;13.70;;;7.63;;
70455;SDS011;57916;51.996;5.180;2023-05-10T12:59:01;11.95;;;7.32;;
70455;SDS011;57916;51.996;5.180;2023-05-10T13:01:28;13.07;;;7.53;;
70455;SDS011;57916;51.996;5.180;2023-05-10T13:03:55;13.20;;;8.00;;
70455;SDS011;57916;51.996;5.180;2023-05-10T13:06:22;14.68;;;7.35;;
70455;SDS011;57916;51.996;5.180;2023-05-10T13:08:49;10.82;;;7.30;;
70455;SDS011;57916;51.996;5.180;2023-05-10T13:11:16;11.48;;;7.00;;
70455;SDS011;57916;51.996;5.180;2023-05-10T13:13:43;11.03;;;6.90;;
70455;SDS011;57916;51.996;5.180;2023-05-10T13:16:10;11.50;;;6.93;;
70455;SDS011;57916;51.996;5.180;2023-05-10T13:18:37;11.13;;;7.05;;
70455;SDS011;57916;51.996;5.180;2023-05-10T13:21:04;15.68;;;7.15;;
70455;SDS011;57916;51.996;5.180;2023-05-10T13:23:32;12.23;;;6.60;;
70455;SDS011;57916;51.996;5.180;2023-05-10T13:25:58;12.40;;;6.82;;
70455;SDS011;57916;51.996;5.180;2023-05-10T13:28:26;12.40;;;6.87;;
70455;SDS011;57916;51.996;5.180;2023-05-10T13:30:53;13.40;;;6.85;;
70455;SDS011;57916;51.996;5.180;2023-05-10T13:33:20;11.32;;;6.95;;
70455;SDS011;57916;51.996;5.180;2023-05-10T13:35:47;10.98;;;6.63;;
70455;SDS011;57916;51.996;5.180;2023-05-10T13:38:14;10.65;;;6.78;;
70455;SDS011;57916;51.996;5.180;2023-05-10T13:40:41;14.70;;;7.00;;
70455;SDS011;57916;51.996;5.180;2023-05-10T13:43:08;13.40;;;7.55;;
70455;SDS011;57916;51.996;5.180;2023-05-10T13:45:35;12.27;;;7.70;;
70455;SDS011;57916;51.996;5.180;2023-05-10T13:48:02;16.90;;;7.72;;
70455;SDS011;57916;51.996;5.180;2023-05-10T13:50:29;13.90;;;8.02;;
70455;SDS011;57916;51.996;5.180;2023-05-10T13:52:56;16.92;;;9.00;;
70455;SDS011;57916;51.996;5.180;2023-05-10T13:55:23;14.57;;;8.70;;
70455;SDS011;57916;51.996;5.180;2023-05-10T13:57:50;18.30;;;8.52;;
70455;SDS011;57916;51.996;5.180;2023-05-10T14:00:18;13.15;;;8.57;;
70455;SDS011;57916;51.996;5.180;2023-05-10T14:02:45;13.73;;;9.20;;
70455;SDS011;57916;51.996;5.180;2023-05-10T14:05:12;12.85;;;8.35;;
70455;SDS011;57916;51.996;5.180;2023-05-10T14:07:39;15.15;;;8.60;;
70455;SDS011;57916;51.996;5.180;2023-05-10T14:10:06;13.32;;;8.82;;
70455;SDS011;57916;51.996;5.180;2023-05-10T14:12:33;14.82;;;8.73;;
70455;SDS011;57916;51.996;5.180;2023-05-10T14:15:00;17.27;;;9.32;;
70455;SDS011;57916;51.996;5.180;2023-05-10T14:17:27;16.92;;;9.05;;
70455;SDS011;57916;51.996;5.180;2023-05-10T14:19:54;14.13;;;8.80;;
70455;SDS011;57916;51.996;5.180;2023-05-10T14:22:21;14.32;;;8.95;;
70455;SDS011;57916;51.996;5.180;2023-05-10T14:24:48;15.07;;;9.05;;
70455;SDS011;57916;51.996;5.180;2023-05-10T14:27:16;13.48;;;9.15;;
70455;SDS011;57916;51.996;5.180;2023-05-10T14:29:43;16.55;;;8.98;;
70455;SDS011;57916;51.996;5.180;2023-05-10T14:32:10;15.38;;;8.57;;
70455;SDS011;57916;51.996;5.180;2023-05-10T14:34:37;16.98;;;9.00;;
70455;SDS011;57916;51.996;5.180;2023-05-10T14:37:04;12.97;;;8.20;;
70455;SDS011;57916;51.996;5.180;2023-05-10T14:39:30;14.95;;;7.97;;
70455;SDS011;57916;51.996;5.180;2023-05-10T14:41:59;14.65;;;8.05;;
70455;SDS011;57916;51.996;5.180;2023-05-10T14:44:26;15.70;;;8.13;;
70455;SDS011;57916;51.996;5.180;2023-05-10T14:46:53;13.38;;;7.95;;
70455;SDS011;57916;51.996;5.180;2023-05-10T14:49:21;10.25;;;7.18;;
70455;SDS011;57916;51.996;5.180;2023-05-10T14:51:50;10.93;;;6.87;;
70455;SDS011;57916;51.996;5.180;2023-05-10T14:54:18;12.67;;;7.17;;
70455;SDS011;57916;51.996;5.180;2023-05-10T14:56:45;12.65;;;7.35;;
70455;SDS011;57916;51.996;5.180;2023-05-10T14:59:12;11.27;;;7.53;;
70455;SDS011;57916;51.996;5.180;2023-05-10T15:01:39;13.90;;;7.57;;
70455;SDS011;57916;51.996;5.180;2023-05-10T15:04:08;18.08;;;8.35;;
70455;SDS011;57916;51.996;5.180;2023-05-10T15:06:36;12.57;;;7.10;;
70455;SDS011;57916;51.996;5.180;2023-05-10T15:09:03;14.25;;;7.53;;
70455;SDS011;57916;51.996;5.180;2023-05-10T15:11:30;13.02;;;7.50;;